createdAt,value
2018-12-27T00:02:22.370Z,21.53
2018-12-27T00:05:12.464Z,25.72
2018-12-27T00:08:02.974Z,21.70
2018-12-27T00:10:53.194Z,27.02
2018-12-27T00:13:43.006Z,23.42
2018-12-27T00:16:32.989Z,20.73
2018-12-27T00:19:22.938Z,23.18
2018-12-27T00:22:12.817Z,25.00
2018-12-27T00:25:02.644Z,21.42
2018-12-27T00:27:52.505Z,24.75
2018-12-27T00:30:42.174Z,27.35
2018-12-27T00:33:32.268Z,22.02
2018-12-27T00:36:22.731Z,20.43
2018-12-27T00:39:13.331Z,21.55
2018-12-27T00:42:03.566Z,21.70
2018-12-27T00:44:53.754Z,24.20
2018-12-27T00:47:44.252Z,22.87
2018-12-27T00:50:34.546Z,22.05
2018-12-27T00:53:24.755Z,22.75
2018-12-27T00:56:15.608Z,20.32
2018-12-27T00:59:05.152Z,21.75
2018-12-27T01:01:55.472Z,22.37
2018-12-27T01:05:04.657Z,18.35
2018-12-27T01:07:54.690Z,25.25
2018-12-27T01:10:44.781Z,24.75
2018-12-27T01:13:35.253Z,22.05
2018-12-27T01:16:25.457Z,23.80
2018-12-27T01:19:15.283Z,21.62
2018-12-27T01:22:05.619Z,24.67
2018-12-27T01:24:55.917Z,25.85
2018-12-27T01:27:46.438Z,23.85
2018-12-27T01:30:36.970Z,25.00
2018-12-27T01:33:26.878Z,23.65
2018-12-27T01:36:16.973Z,22.35
2018-12-27T01:39:07.387Z,24.67
2018-12-27T01:41:57.526Z,19.20
2018-12-27T01:44:47.783Z,21.27
2018-12-27T01:47:38.216Z,26.30
2018-12-27T01:50:28.053Z,23.20
2018-12-27T01:53:18.993Z,23.05
2018-12-27T01:56:09.014Z,22.77
2018-12-27T01:58:59.144Z,24.25
2018-12-27T02:01:48.922Z,21.30
2018-12-27T02:04:39.090Z,24.47
2018-12-27T02:07:28.920Z,20.30
2018-12-27T02:10:18.911Z,23.35
2018-12-27T02:13:08.850Z,24.77
2018-12-27T02:15:58.879Z,23.35
2018-12-27T02:18:49.376Z,23.42
2018-12-27T02:21:45.087Z,23.40
2018-12-27T02:24:35.234Z,24.72
2018-12-27T02:27:25.925Z,21.95
2018-12-27T02:30:16.400Z,23.83
2018-12-27T02:33:06.523Z,21.80
2018-12-27T02:35:58.665Z,24.92
2018-12-27T02:38:48.873Z,24.30
2018-12-27T02:41:39.083Z,20.85
2018-12-27T02:44:29.204Z,22.07
2018-12-27T02:47:19.487Z,22.83
2018-12-27T02:50:09.686Z,22.93
2018-12-27T02:53:00.111Z,23.47
2018-12-27T02:55:50.090Z,22.87
2018-12-27T02:58:40.649Z,22.42
2018-12-27T03:01:31.168Z,18.42
2018-12-27T03:04:21.337Z,21.15
2018-12-27T03:07:11.582Z,20.60
2018-12-27T03:10:02.099Z,21.00
2018-12-27T03:12:52.338Z,22.67
2018-12-27T03:15:42.793Z,21.55
2018-12-27T03:18:32.541Z,20.55
2018-12-27T03:21:23.227Z,21.55
2018-12-27T03:24:13.288Z,19.42
2018-12-27T03:27:03.465Z,24.12
2018-12-27T03:29:53.422Z,21.68
2018-12-27T03:32:43.629Z,22.03
2018-12-27T03:35:34.159Z,21.05
2018-12-27T03:38:23.821Z,19.40
2018-12-27T03:41:13.669Z,21.07
2018-12-27T03:44:03.873Z,19.05
2018-12-27T03:46:54.017Z,18.27
2018-12-27T03:49:44.031Z,19.90
2018-12-27T03:52:34.390Z,20.37
2018-12-27T03:55:25.169Z,19.15
2018-12-27T03:58:15.233Z,20.82
2018-12-27T04:01:04.815Z,14.55
2018-12-27T04:04:01.435Z,19.70
2018-12-27T04:06:46.370Z,17.75
2018-12-27T04:09:36.132Z,17.12
2018-12-27T04:12:26.142Z,17.90
2018-12-27T04:15:16.235Z,16.37
2018-12-27T04:18:06.502Z,18.23
2018-12-27T04:20:58.228Z,19.37
2018-12-27T04:23:48.990Z,15.50
2018-12-27T04:26:38.717Z,15.38
2018-12-27T04:29:28.590Z,18.10
2018-12-27T04:32:18.541Z,18.60
2018-12-27T04:35:08.098Z,17.10
2018-12-27T04:37:58.162Z,16.97
2018-12-27T04:40:48.073Z,17.67
2018-12-27T04:43:38.675Z,19.37
2018-12-27T04:46:28.703Z,17.93
2018-12-27T04:49:18.592Z,20.85
2018-12-27T04:52:08.054Z,18.85
2018-12-27T04:54:58.207Z,19.80
2018-12-27T04:57:47.706Z,20.17
2018-12-27T05:00:37.500Z,15.95
2018-12-27T05:03:27.311Z,17.42
2018-12-27T05:06:17.630Z,20.52
2018-12-27T05:09:08.054Z,17.42
2018-12-27T05:11:58.391Z,20.02
2018-12-27T05:14:47.800Z,20.82
2018-12-27T05:17:38.164Z,18.82
2018-12-27T05:20:28.241Z,17.30
2018-12-27T05:23:18.470Z,20.92
2018-12-27T05:26:08.304Z,19.40
2018-12-27T05:28:58.235Z,16.42
2018-12-27T05:31:48.422Z,18.50
2018-12-27T05:34:38.761Z,21.37
2018-12-27T05:37:28.994Z,18.60
2018-12-27T05:40:18.707Z,21.95
2018-12-27T05:43:09.282Z,22.90
2018-12-27T05:45:59.948Z,23.18
2018-12-27T05:48:50.063Z,22.48
2018-12-27T05:51:40.269Z,20.35
2018-12-27T05:54:30.064Z,20.25
2018-12-27T05:57:20.024Z,21.00
2018-12-27T06:00:10.137Z,24.55
2018-12-27T06:03:00.613Z,20.80
2018-12-27T06:05:50.650Z,20.70
2018-12-27T06:08:40.342Z,21.17
2018-12-27T06:11:30.583Z,23.45
2018-12-27T06:14:20.760Z,18.80
2018-12-27T06:17:11.036Z,21.30
2018-12-27T06:20:01.549Z,22.37
2018-12-27T06:22:51.790Z,24.90
2018-12-27T06:25:41.793Z,22.93
2018-12-27T06:28:32.562Z,18.85
2018-12-27T06:31:22.373Z,22.03
2018-12-27T06:34:12.581Z,21.77
2018-12-27T06:37:02.501Z,20.32
2018-12-27T06:39:52.672Z,19.60
2018-12-27T06:42:42.433Z,25.20
2018-12-27T06:45:33.091Z,19.75
2018-12-27T06:48:23.449Z,22.60
2018-12-27T06:51:13.489Z,20.52
2018-12-27T06:54:03.725Z,19.77
2018-12-27T06:56:54.060Z,21.75
2018-12-27T06:59:44.266Z,19.07
2018-12-27T07:02:34.713Z,22.23
2018-12-27T07:05:25.047Z,21.60
2018-12-27T07:08:15.157Z,19.60
2018-12-27T07:11:05.338Z,23.55
2018-12-27T07:13:55.639Z,22.60
2018-12-27T07:16:45.869Z,19.77
2018-12-27T07:19:36.117Z,21.75
2018-12-27T07:22:26.831Z,21.30
2018-12-27T07:25:16.703Z,19.17
2018-12-27T07:28:06.508Z,21.07
2018-12-27T07:30:56.695Z,20.02
2018-12-27T07:33:46.667Z,21.15
2018-12-27T07:36:36.662Z,21.60
2018-12-27T07:39:26.689Z,23.32
2018-12-27T07:42:16.863Z,20.40
2018-12-27T07:45:07.173Z,21.65
2018-12-27T07:47:56.905Z,24.40
2018-12-27T07:50:46.864Z,25.55
2018-12-27T07:53:37.161Z,21.65
2018-12-27T07:56:26.885Z,22.58
2018-12-27T07:59:16.903Z,23.57
2018-12-27T08:02:07.319Z,18.65
2018-12-27T08:05:03.690Z,20.60
2018-12-27T08:07:48.873Z,22.52
2018-12-27T08:10:41.066Z,18.85
2018-12-27T08:13:30.994Z,20.90
2018-12-27T08:16:26.315Z,24.05
2018-12-27T08:19:15.930Z,21.52
2018-12-27T08:22:06.497Z,30.12
2018-12-27T08:24:56.592Z,25.52
2018-12-27T08:27:47.280Z,24.47
2018-12-27T08:30:37.392Z,20.20
2018-12-27T08:33:28.007Z,22.00
2018-12-27T08:36:18.130Z,26.00
2018-12-27T08:39:08.508Z,20.40
2018-12-27T08:41:58.208Z,21.37
2018-12-27T08:44:48.454Z,18.55
2018-12-27T08:47:38.660Z,18.70
2018-12-27T08:50:28.568Z,20.08
2018-12-27T08:53:18.805Z,17.42
2018-12-27T08:56:08.885Z,17.20
2018-12-27T08:58:58.691Z,19.90
2018-12-27T09:01:48.648Z,17.37
2018-12-27T09:04:38.579Z,18.75
2018-12-27T09:07:28.242Z,16.40
2018-12-27T09:10:18.203Z,15.98
2018-12-27T09:13:08.405Z,16.45
2018-12-27T09:15:58.698Z,15.08
2018-12-27T09:18:48.155Z,15.55
2018-12-27T09:21:38.363Z,15.43
2018-12-27T09:24:28.618Z,16.73
2018-12-27T09:27:19.189Z,18.52
2018-12-27T09:30:09.347Z,17.70
2018-12-27T09:32:59.212Z,22.80
2018-12-27T09:35:49.153Z,15.48
2018-12-27T09:38:39.477Z,18.20
2018-12-27T09:41:29.905Z,17.77
2018-12-27T09:44:19.857Z,17.52
2018-12-27T09:47:09.779Z,16.07
2018-12-27T09:49:59.909Z,17.70
2018-12-27T09:52:50.004Z,16.57
2018-12-27T09:55:40.379Z,17.35
2018-12-27T09:58:30.591Z,16.57
2018-12-27T10:01:21.160Z,14.00
2018-12-27T10:04:11.207Z,17.77
2018-12-27T10:07:01.479Z,21.52
2018-12-27T10:09:51.974Z,15.13
2018-12-27T10:12:41.965Z,20.02
2018-12-27T10:15:31.963Z,17.23
2018-12-27T10:18:22.057Z,15.87
2018-12-27T10:21:12.037Z,15.38
2018-12-27T10:24:02.222Z,14.43
2018-12-27T10:26:52.316Z,11.60
2018-12-27T10:29:42.267Z,15.32
2018-12-27T10:32:32.634Z,13.58
2018-12-27T10:35:22.710Z,15.15
2018-12-27T10:38:13.024Z,14.28
2018-12-27T10:41:03.268Z,10.08
2018-12-27T10:43:53.346Z,10.28
2018-12-27T10:46:43.652Z,14.03
2018-12-27T10:49:33.664Z,11.57
2018-12-27T10:52:23.833Z,13.70
2018-12-27T10:55:14.008Z,10.65
2018-12-27T10:58:04.649Z,12.55
2018-12-27T11:00:55.040Z,11.78
2018-12-27T11:03:44.966Z,12.98
2018-12-27T11:06:35.263Z,11.65
2018-12-27T11:09:25.100Z,13.00
2018-12-27T11:12:15.050Z,9.78
2018-12-27T11:15:05.584Z,12.43
2018-12-27T11:17:55.603Z,20.00
2018-12-27T11:20:45.737Z,11.70
2018-12-27T11:23:36.129Z,11.20
2018-12-27T11:26:26.520Z,17.80
2018-12-27T11:29:17.190Z,12.65
2018-12-27T11:32:06.674Z,13.90
2018-12-27T11:34:56.657Z,15.05
2018-12-27T11:37:47.198Z,13.75
2018-12-27T11:40:37.436Z,17.20
2018-12-27T11:43:27.215Z,18.98
2018-12-27T11:46:17.494Z,10.63
2018-12-27T11:49:07.382Z,14.95
2018-12-27T11:51:57.295Z,18.05
2018-12-27T11:54:47.152Z,15.10
2018-12-27T11:57:36.971Z,10.80
2018-12-27T12:00:26.902Z,12.53
2018-12-27T12:03:17.046Z,13.93
2018-12-27T12:06:06.536Z,12.37
2018-12-27T12:08:57.114Z,14.80
2018-12-27T12:11:46.743Z,12.63
2018-12-27T12:14:37.284Z,17.35
2018-12-27T12:17:27.855Z,12.05
2018-12-27T12:20:17.608Z,13.53
2018-12-27T12:23:07.752Z,12.95
2018-12-27T12:25:58.022Z,12.95
2018-12-27T12:28:47.746Z,13.58
2018-12-27T12:31:37.840Z,12.15
2018-12-27T12:34:27.638Z,15.78
2018-12-27T12:37:19.447Z,16.05
2018-12-27T12:40:09.649Z,14.10
2018-12-27T12:43:00.307Z,15.75
2018-12-27T12:45:50.199Z,13.13
2018-12-27T12:48:40.889Z,15.48
2018-12-27T12:51:30.389Z,15.85
2018-12-27T12:54:20.096Z,14.25
2018-12-27T12:57:10.196Z,12.00
2018-12-27T17:31:20.505Z,27.50
2018-12-27T17:34:10.159Z,30.90
2018-12-27T17:36:59.911Z,28.23
2018-12-27T17:39:49.719Z,31.35
2018-12-27T17:42:39.678Z,31.15
2018-12-27T17:45:29.632Z,31.20
2018-12-27T17:48:19.632Z,33.10
2018-12-27T17:51:09.374Z,36.40
2018-12-27T17:53:59.237Z,33.15
2018-12-27T17:56:49.411Z,33.63
2018-12-27T17:59:39.236Z,33.08
2018-12-27T18:02:29.653Z,34.60
2018-12-27T18:05:19.638Z,33.38
2018-12-27T18:08:09.779Z,32.73
2018-12-27T18:10:59.711Z,39.45
2018-12-27T18:13:49.889Z,37.17
2018-12-27T18:16:40.018Z,39.35
2018-12-27T18:19:29.993Z,40.28
2018-12-27T18:22:19.938Z,42.20
2018-12-27T18:25:10.003Z,40.55
2018-12-27T18:28:00.430Z,37.85
2018-12-27T18:30:52.866Z,37.08
2018-12-27T18:33:43.353Z,33.02
2018-12-27T18:36:33.114Z,34.67
2018-12-27T18:39:23.180Z,33.35
2018-12-27T18:42:12.985Z,30.50
2018-12-27T18:45:03.095Z,39.23
2018-12-27T18:47:53.611Z,38.63
2018-12-27T18:50:43.856Z,42.10
2018-12-27T18:53:33.964Z,35.45
2018-12-27T18:56:24.422Z,35.60
2018-12-27T18:59:14.888Z,34.20
2018-12-27T19:02:05.675Z,29.12
2018-12-27T19:04:56.323Z,35.55
2018-12-27T19:07:46.690Z,37.03
2018-12-27T19:10:37.303Z,37.97
2018-12-27T19:13:27.163Z,51.50
2018-12-27T19:16:17.430Z,63.92
2018-12-27T19:19:07.767Z,51.37
2018-12-27T19:22:06.800Z,45.00
2018-12-27T19:24:56.676Z,41.42
2018-12-27T19:27:47.115Z,38.33
2018-12-27T19:30:36.992Z,41.92
2018-12-27T19:33:27.454Z,33.80
2018-12-27T19:36:17.467Z,34.90
2018-12-27T19:39:07.873Z,34.55
2018-12-27T19:41:58.364Z,34.03
2018-12-27T19:44:48.474Z,33.10
2018-12-27T19:47:38.691Z,35.08
2018-12-27T19:50:28.412Z,33.20
2018-12-27T19:53:18.438Z,37.00
2018-12-27T19:56:08.401Z,33.83
2018-12-27T19:58:58.832Z,39.38
2018-12-27T20:01:49.288Z,34.90
2018-12-27T20:04:39.702Z,36.80
2018-12-27T20:07:30.221Z,38.33
2018-12-27T20:10:20.651Z,36.73
2018-12-27T20:13:10.887Z,42.85
2018-12-27T20:16:01.006Z,40.30
2018-12-27T20:18:51.574Z,34.63
2018-12-27T20:21:42.143Z,42.80
2018-12-27T20:24:32.564Z,44.63
2018-12-27T20:27:23.064Z,44.73
2018-12-27T20:30:13.716Z,37.53
2018-12-27T20:33:04.168Z,46.60
2018-12-27T20:35:54.947Z,39.88
2018-12-27T20:38:45.139Z,43.05
2018-12-27T20:41:35.487Z,37.00
2018-12-27T20:44:25.644Z,33.30
2018-12-27T20:47:15.356Z,32.93
2018-12-27T20:50:07.055Z,29.48
2018-12-27T20:52:57.092Z,37.20
2018-12-27T20:55:46.896Z,33.13
2018-12-27T20:58:37.268Z,33.42
2018-12-27T21:01:27.216Z,29.30
2018-12-27T21:04:17.757Z,30.32
2018-12-27T21:07:08.232Z,27.48
2018-12-27T21:09:59.036Z,29.42
2018-12-27T21:12:48.495Z,28.20
2018-12-27T21:15:38.427Z,28.92
2018-12-27T21:18:28.541Z,24.12
2018-12-27T21:21:19.126Z,24.55
2018-12-27T21:24:10.690Z,20.27
2018-12-27T21:27:01.340Z,22.50
2018-12-27T21:29:51.734Z,26.25
2018-12-27T21:32:41.790Z,25.15
2018-12-27T21:35:32.234Z,25.68
2018-12-27T21:38:22.458Z,25.80
2018-12-27T21:41:12.185Z,29.27
2018-12-27T21:44:02.116Z,30.62
2018-12-27T21:46:52.078Z,29.75
2018-12-27T21:49:42.142Z,32.75
2018-12-27T21:52:32.402Z,32.42
2018-12-27T21:55:22.530Z,36.30
2018-12-27T21:58:12.906Z,36.90
2018-12-27T22:01:03.071Z,34.80
2018-12-27T22:03:53.715Z,32.60
2018-12-27T22:06:43.563Z,31.85
2018-12-27T22:09:34.012Z,35.63
2018-12-27T22:12:24.490Z,29.25
2018-12-27T22:15:15.156Z,27.00
2018-12-27T22:18:04.975Z,31.33
2018-12-27T22:20:55.435Z,31.97
2018-12-27T22:23:45.755Z,27.82
2018-12-27T22:26:35.837Z,27.60
2018-12-27T22:29:26.501Z,23.27
2018-12-27T22:32:16.980Z,27.45
2018-12-27T22:35:07.146Z,27.80
2018-12-27T22:37:57.411Z,23.15
2018-12-27T22:40:47.581Z,21.83
2018-12-27T22:43:37.866Z,21.85
2018-12-27T22:46:28.508Z,21.48
2018-12-27T22:49:18.812Z,21.27
2018-12-27T22:52:09.161Z,22.73
2018-12-27T22:54:59.642Z,23.12
2018-12-27T22:57:50.031Z,22.87
2018-12-27T23:00:41.196Z,24.50
2018-12-27T23:03:31.714Z,19.42
2018-12-27T23:06:22.113Z,21.68
2018-12-27T23:09:12.092Z,21.75
2018-12-27T23:12:02.510Z,20.50
2018-12-27T23:14:52.826Z,20.43
2018-12-27T23:17:43.448Z,22.65
2018-12-27T23:20:33.961Z,21.30
2018-12-27T23:29:03.447Z,18.82
2018-12-27T23:31:54.055Z,18.87
2018-12-27T23:37:26.690Z,20.65
2018-12-27T23:40:17.011Z,18.00
2018-12-27T23:43:07.299Z,19.30
2018-12-27T23:45:57.453Z,22.45
2018-12-27T23:48:47.910Z,26.15
2018-12-27T23:51:38.855Z,21.62
2018-12-27T23:54:29.010Z,27.07
2018-12-27T23:57:18.619Z,37.38
